sensor_id;sensor_type;location;lat;lon;timestamp;temperature;humidity
19892;DHT22;10108;50.142;8.724;2022-07-22T00:01:40;21.00;99.90
19892;DHT22;10108;50.142;8.724;2022-07-22T00:04:06;21.00;99.90
19892;DHT22;10108;50.142;8.724;2022-07-22T00:06:32;21.00;99.90
19892;DHT22;10108;50.142;8.724;2022-07-22T00:08:58;21.00;99.90
19892;DHT22;10108;50.142;8.724;2022-07-22T00:11:24;20.90;99.90
19892;DHT22;10108;50.142;8.724;2022-07-22T00:13:50;20.90;99.90
19892;DHT22;10108;50.142;8.724;2022-07-22T00:16:17;20.90;99.90
19892;DHT22;10108;50.142;8.724;2022-07-22T00:18:43;20.80;99.90
19892;DHT22;10108;50.142;8.724;2022-07-22T00:21:09;20.80;99.90
19892;DHT22;10108;50.142;8.724;2022-07-22T00:23:35;20.80;99.90
19892;DHT22;10108;50.142;8.724;2022-07-22T00:26:02;20.80;99.90
19892;DHT22;10108;50.142;8.724;2022-07-22T00:28:28;20.80;99.90
19892;DHT22;10108;50.142;8.724;2022-07-22T00:30:54;20.80;99.90
19892;DHT22;10108;50.142;8.724;2022-07-22T00:33:21;20.80;99.90
19892;DHT22;10108;50.142;8.724;2022-07-22T00:35:50;20.80;99.90
19892;DHT22;10108;50.142;8.724;2022-07-22T00:38:16;20.80;99.90
19892;DHT22;10108;50.142;8.724;2022-07-22T00:40:42;20.70;99.90
19892;DHT22;10108;50.142;8.724;2022-07-22T00:43:09;20.70;99.90
19892;DHT22;10108;50.142;8.724;2022-07-22T00:45:35;20.70;99.90
19892;DHT22;10108;50.142;8.724;2022-07-22T00:48:01;20.70;99.90
19892;DHT22;10108;50.142;8.724;2022-07-22T00:50:28;20.70;99.90
19892;DHT22;10108;50.142;8.724;2022-07-22T00:52:54;20.70;99.90
19892;DHT22;10108;50.142;8.724;2022-07-22T00:55:21;20.60;99.90
19892;DHT22;10108;50.142;8.724;2022-07-22T00:57:47;20.70;99.90
19892;DHT22;10108;50.142;8.724;2022-07-22T01:00:17;20.70;99.90
19892;DHT22;10108;50.142;8.724;2022-07-22T01:02:43;20.70;99.90
19892;DHT22;10108;50.142;8.724;2022-07-22T01:05:09;20.70;99.90
19892;DHT22;10108;50.142;8.724;2022-07-22T01:07:37;20.70;99.90
19892;DHT22;10108;50.142;8.724;2022-07-22T01:10:05;20.70;99.90
19892;DHT22;10108;50.142;8.724;2022-07-22T01:12:32;20.60;99.90
19892;DHT22;10108;50.142;8.724;2022-07-22T01:14:58;20.60;99.90
19892;DHT22;10108;50.142;8.724;2022-07-22T01:17:24;20.60;99.90
19892;DHT22;10108;50.142;8.724;2022-07-22T01:19:50;20.50;99.90
19892;DHT22;10108;50.142;8.724;2022-07-22T01:22:16;20.50;99.90
19892;DHT22;10108;50.142;8.724;2022-07-22T01:24:43;20.50;99.90
19892;DHT22;10108;50.142;8.724;2022-07-22T01:27:09;20.50;99.90
19892;DHT22;10108;50.142;8.724;2022-07-22T01:29:35;20.50;99.90
19892;DHT22;10108;50.142;8.724;2022-07-22T01:32:01;20.50;99.90
19892;DHT22;10108;50.142;8.724;2022-07-22T01:34:28;20.50;99.90
19892;DHT22;10108;50.142;8.724;2022-07-22T01:36:54;20.50;99.90
19892;DHT22;10108;50.142;8.724;2022-07-22T01:39:20;20.50;99.90
19892;DHT22;10108;50.142;8.724;2022-07-22T01:41:47;20.40;99.90
19892;DHT22;10108;50.142;8.724;2022-07-22T01:44:13;20.40;99.90
19892;DHT22;10108;50.142;8.724;2022-07-22T01:46:39;20.30;99.90
19892;DHT22;10108;50.142;8.724;2022-07-22T01:49:06;20.30;99.90
19892;DHT22;10108;50.142;8.724;2022-07-22T01:51:37;20.30;99.90
19892;DHT22;10108;50.142;8.724;2022-07-22T01:54:03;20.20;99.90
19892;DHT22;10108;50.142;8.724;2022-07-22T01:56:30;20.20;99.90
19892;DHT22;10108;50.142;8.724;2022-07-22T01:58:57;20.20;99.90
19892;DHT22;10108;50.142;8.724;2022-07-22T02:01:26;20.20;99.90
19892;DHT22;10108;50.142;8.724;2022-07-22T02:03:53;20.20;99.90
19892;DHT22;10108;50.142;8.724;2022-07-22T02:06:19;20.10;99.90
19892;DHT22;10108;50.142;8.724;2022-07-22T02:08:45;20.10;99.90
19892;DHT22;10108;50.142;8.724;2022-07-22T02:11:13;20.10;99.90
19892;DHT22;10108;50.142;8.724;2022-07-22T02:13:56;20.00;99.90
19892;DHT22;10108;50.142;8.724;2022-07-22T02:16:24;20.00;99.90
19892;DHT22;10108;50.142;8.724;2022-07-22T02:18:51;20.00;99.90
19892;DHT22;10108;50.142;8.724;2022-07-22T02:21:18;20.00;99.90
19892;DHT22;10108;50.142;8.724;2022-07-22T02:23:44;20.00;99.90
19892;DHT22;10108;50.142;8.724;2022-07-22T02:26:11;20.00;99.90
19892;DHT22;10108;50.142;8.724;2022-07-22T02:28:37;20.00;99.90
19892;DHT22;10108;50.142;8.724;2022-07-22T02:31:03;20.00;99.90
19892;DHT22;10108;50.142;8.724;2022-07-22T02:33:29;20.00;99.90
19892;DHT22;10108;50.142;8.724;2022-07-22T02:35:57;19.90;99.90
19892;DHT22;10108;50.142;8.724;2022-07-22T02:38:23;19.90;99.90
19892;DHT22;10108;50.142;8.724;2022-07-22T02:40:49;19.90;99.90
19892;DHT22;10108;50.142;8.724;2022-07-22T02:43:15;19.80;99.90
19892;DHT22;10108;50.142;8.724;2022-07-22T02:45:42;19.80;99.90
19892;DHT22;10108;50.142;8.724;2022-07-22T02:48:09;19.80;99.90
19892;DHT22;10108;50.142;8.724;2022-07-22T02:50:36;19.70;99.90
19892;DHT22;10108;50.142;8.724;2022-07-22T02:53:04;19.70;99.90
19892;DHT22;10108;50.142;8.724;2022-07-22T02:55:35;19.70;99.90
19892;DHT22;10108;50.142;8.724;2022-07-22T02:58:07;19.70;99.90
19892;DHT22;10108;50.142;8.724;2022-07-22T03:00:35;19.70;99.90
19892;DHT22;10108;50.142;8.724;2022-07-22T03:03:01;19.60;99.90
19892;DHT22;10108;50.142;8.724;2022-07-22T03:05:28;19.60;99.90
19892;DHT22;10108;50.142;8.724;2022-07-22T03:08:09;19.60;99.90
19892;DHT22;10108;50.142;8.724;2022-07-22T03:10:37;19.60;99.90
19892;DHT22;10108;50.142;8.724;2022-07-22T03:13:03;19.60;99.90
19892;DHT22;10108;50.142;8.724;2022-07-22T03:15:29;19.50;99.90
19892;DHT22;10108;50.142;8.724;2022-07-22T03:17:55;19.50;99.90
19892;DHT22;10108;50.142;8.724;2022-07-22T03:20:22;19.50;99.90
19892;DHT22;10108;50.142;8.724;2022-07-22T03:22:48;19.40;99.90
19892;DHT22;10108;50.142;8.724;2022-07-22T03:25:14;19.40;99.90
19892;DHT22;10108;50.142;8.724;2022-07-22T03:27:40;19.40;99.90
19892;DHT22;10108;50.142;8.724;2022-07-22T03:30:07;19.50;99.90
19892;DHT22;10108;50.142;8.724;2022-07-22T03:32:38;19.50;99.90
19892;DHT22;10108;50.142;8.724;2022-07-22T03:35:05;19.50;99.90
19892;DHT22;10108;50.142;8.724;2022-07-22T03:37:34;19.50;99.90
19892;DHT22;10108;50.142;8.724;2022-07-22T03:40:00;19.50;99.90
19892;DHT22;10108;50.142;8.724;2022-07-22T03:42:27;19.50;99.90
19892;DHT22;10108;50.142;8.724;2022-07-22T03:44:53;19.50;99.90
19892;DHT22;10108;50.142;8.724;2022-07-22T03:47:21;19.50;99.90
19892;DHT22;10108;50.142;8.724;2022-07-22T03:49:49;19.50;99.90
19892;DHT22;10108;50.142;8.724;2022-07-22T03:52:19;19.50;99.90
19892;DHT22;10108;50.142;8.724;2022-07-22T03:54:45;19.50;99.90
19892;DHT22;10108;50.142;8.724;2022-07-22T03:57:12;19.60;99.90
19892;DHT22;10108;50.142;8.724;2022-07-22T03:59:38;19.60;99.90
19892;DHT22;10108;50.142;8.724;2022-07-22T04:02:05;19.60;99.90
19892;DHT22;10108;50.142;8.724;2022-07-22T04:04:31;19.70;99.90
19892;DHT22;10108;50.142;8.724;2022-07-22T04:06:58;19.70;99.90
19892;DHT22;10108;50.142;8.724;2022-07-22T04:09:31;19.80;99.90
19892;DHT22;10108;50.142;8.724;2022-07-22T04:11:58;19.80;99.90
19892;DHT22;10108;50.142;8.724;2022-07-22T04:14:28;19.80;99.90
19892;DHT22;10108;50.142;8.724;2022-07-22T04:16:57;19.90;99.90
19892;DHT22;10108;50.142;8.724;2022-07-22T04:19:23;20.00;99.90
19892;DHT22;10108;50.142;8.724;2022-07-22T04:21:52;20.00;99.90
19892;DHT22;10108;50.142;8.724;2022-07-22T04:24:20;20.00;99.90
19892;DHT22;10108;50.142;8.724;2022-07-22T04:26:48;20.00;99.90
19892;DHT22;10108;50.142;8.724;2022-07-22T04:29:14;20.00;99.90
19892;DHT22;10108;50.142;8.724;2022-07-22T04:31:41;20.10;99.90
19892;DHT22;10108;50.142;8.724;2022-07-22T04:34:12;20.10;99.90
19892;DHT22;10108;50.142;8.724;2022-07-22T04:36:38;20.10;99.90
19892;DHT22;10108;50.142;8.724;2022-07-22T04:39:05;20.00;99.90
19892;DHT22;10108;50.142;8.724;2022-07-22T04:41:31;20.00;99.90
19892;DHT22;10108;50.142;8.724;2022-07-22T04:43:58;20.00;99.90
19892;DHT22;10108;50.142;8.724;2022-07-22T04:46:27;20.00;99.90
19892;DHT22;10108;50.142;8.724;2022-07-22T04:48:55;20.10;99.90
19892;DHT22;10108;50.142;8.724;2022-07-22T04:51:21;20.10;99.90
19892;DHT22;10108;50.142;8.724;2022-07-22T04:53:49;20.00;99.90
19892;DHT22;10108;50.142;8.724;2022-07-22T04:56:19;20.00;99.90
19892;DHT22;10108;50.142;8.724;2022-07-22T04:58:45;20.00;99.90
19892;DHT22;10108;50.142;8.724;2022-07-22T05:01:11;19.90;99.90
19892;DHT22;10108;50.142;8.724;2022-07-22T05:03:39;19.90;99.90
19892;DHT22;10108;50.142;8.724;2022-07-22T05:06:05;19.90;99.90
19892;DHT22;10108;50.142;8.724;2022-07-22T05:08:36;20.00;99.90
19892;DHT22;10108;50.142;8.724;2022-07-22T05:11:03;20.00;99.90
19892;DHT22;10108;50.142;8.724;2022-07-22T05:13:29;20.10;99.90
19892;DHT22;10108;50.142;8.724;2022-07-22T05:15:55;20.10;99.90
19892;DHT22;10108;50.142;8.724;2022-07-22T05:18:21;20.10;99.90
19892;DHT22;10108;50.142;8.724;2022-07-22T05:20:47;20.20;99.90
19892;DHT22;10108;50.142;8.724;2022-07-22T05:23:13;20.20;99.90
19892;DHT22;10108;50.142;8.724;2022-07-22T05:25:40;20.20;99.90
19892;DHT22;10108;50.142;8.724;2022-07-22T05:28:06;20.20;99.90
19892;DHT22;10108;50.142;8.724;2022-07-22T05:30:36;20.20;99.90
19892;DHT22;10108;50.142;8.724;2022-07-22T05:33:03;20.30;99.90
19892;DHT22;10108;50.142;8.724;2022-07-22T05:35:49;20.30;99.90
19892;DHT22;10108;50.142;8.724;2022-07-22T05:38:16;20.40;99.90
19892;DHT22;10108;50.142;8.724;2022-07-22T05:40:43;20.40;99.90
19892;DHT22;10108;50.142;8.724;2022-07-22T05:43:10;20.40;99.90
19892;DHT22;10108;50.142;8.724;2022-07-22T05:45:36;20.50;99.90
19892;DHT22;10108;50.142;8.724;2022-07-22T05:48:03;20.50;99.90
19892;DHT22;10108;50.142;8.724;2022-07-22T05:50:31;20.60;99.90
19892;DHT22;10108;50.142;8.724;2022-07-22T05:52:57;20.60;99.90
19892;DHT22;10108;50.142;8.724;2022-07-22T05:55:24;20.60;99.90
19892;DHT22;10108;50.142;8.724;2022-07-22T05:57:51;20.70;99.90
19892;DHT22;10108;50.142;8.724;2022-07-22T06:00:17;20.70;99.90
19892;DHT22;10108;50.142;8.724;2022-07-22T06:02:44;20.80;99.90
19892;DHT22;10108;50.142;8.724;2022-07-22T06:05:20;20.80;99.90
19892;DHT22;10108;50.142;8.724;2022-07-22T06:07:47;20.80;99.90
19892;DHT22;10108;50.142;8.724;2022-07-22T06:10:23;20.80;99.90
19892;DHT22;10108;50.142;8.724;2022-07-22T06:12:49;20.80;99.90
19892;DHT22;10108;50.142;8.724;2022-07-22T06:15:16;20.80;99.90
19892;DHT22;10108;50.142;8.724;2022-07-22T06:17:42;20.80;99.90
19892;DHT22;10108;50.142;8.724;2022-07-22T06:20:09;20.80;99.90
19892;DHT22;10108;50.142;8.724;2022-07-22T06:22:35;20.80;99.90
19892;DHT22;10108;50.142;8.724;2022-07-22T06:25:02;20.80;99.90
19892;DHT22;10108;50.142;8.724;2022-07-22T06:27:29;20.80;99.90
19892;DHT22;10108;50.142;8.724;2022-07-22T06:29:56;20.80;99.90
19892;DHT22;10108;50.142;8.724;2022-07-22T06:32:23;20.90;99.90
19892;DHT22;10108;50.142;8.724;2022-07-22T06:34:50;20.90;99.90
19892;DHT22;10108;50.142;8.724;2022-07-22T06:37:16;20.90;99.90
19892;DHT22;10108;50.142;8.724;2022-07-22T06:39:42;20.90;99.90
19892;DHT22;10108;50.142;8.724;2022-07-22T06:42:14;20.90;99.90
19892;DHT22;10108;50.142;8.724;2022-07-22T06:44:58;20.90;99.90
19892;DHT22;10108;50.142;8.724;2022-07-22T06:47:36;20.90;99.90
19892;DHT22;10108;50.142;8.724;2022-07-22T06:50:05;21.00;99.90
19892;DHT22;10108;50.142;8.724;2022-07-22T06:52:31;21.00;99.90
19892;DHT22;10108;50.142;8.724;2022-07-22T06:55:00;21.00;99.90
19892;DHT22;10108;50.142;8.724;2022-07-22T06:57:31;21.00;99.90
19892;DHT22;10108;50.142;8.724;2022-07-22T06:59:58;21.00;99.90
19892;DHT22;10108;50.142;8.724;2022-07-22T07:02:26;20.90;99.90
19892;DHT22;10108;50.142;8.724;2022-07-22T07:04:52;20.90;99.90
19892;DHT22;10108;50.142;8.724;2022-07-22T07:07:18;20.90;99.90
19892;DHT22;10108;50.142;8.724;2022-07-22T07:10:04;21.00;99.90
19892;DHT22;10108;50.142;8.724;2022-07-22T07:12:48;21.00;99.90
19892;DHT22;10108;50.142;8.724;2022-07-22T07:15:24;21.00;99.90
19892;DHT22;10108;50.142;8.724;2022-07-22T07:17:56;21.10;99.90
19892;DHT22;10108;50.142;8.724;2022-07-22T07:20:23;21.10;99.90
19892;DHT22;10108;50.142;8.724;2022-07-22T07:22:49;21.10;99.90
19892;DHT22;10108;50.142;8.724;2022-07-22T07:25:16;21.20;99.90
19892;DHT22;10108;50.142;8.724;2022-07-22T07:27:42;21.20;99.90
19892;DHT22;10108;50.142;8.724;2022-07-22T07:30:11;21.20;99.90
19892;DHT22;10108;50.142;8.724;2022-07-22T07:32:38;21.20;99.90
19892;DHT22;10108;50.142;8.724;2022-07-22T07:35:06;21.20;99.90
19892;DHT22;10108;50.142;8.724;2022-07-22T07:37:33;21.30;99.90
19892;DHT22;10108;50.142;8.724;2022-07-22T07:40:00;21.30;99.90
19892;DHT22;10108;50.142;8.724;2022-07-22T07:42:27;21.30;99.90
19892;DHT22;10108;50.142;8.724;2022-07-22T07:44:53;21.40;99.90
19892;DHT22;10108;50.142;8.724;2022-07-22T07:47:19;21.40;99.90
19892;DHT22;10108;50.142;8.724;2022-07-22T07:49:48;21.40;99.90
19892;DHT22;10108;50.142;8.724;2022-07-22T07:52:15;21.30;99.90
19892;DHT22;10108;50.142;8.724;2022-07-22T07:54:42;21.30;99.90
19892;DHT22;10108;50.142;8.724;2022-07-22T07:57:09;21.30;99.90
19892;DHT22;10108;50.142;8.724;2022-07-22T07:59:38;21.30;99.90
19892;DHT22;10108;50.142;8.724;2022-07-22T08:02:06;21.30;99.90
19892;DHT22;10108;50.142;8.724;2022-07-22T08:04:35;21.20;99.90
19892;DHT22;10108;50.142;8.724;2022-07-22T08:07:05;21.30;99.90
19892;DHT22;10108;50.142;8.724;2022-07-22T08:09:32;21.30;99.90
19892;DHT22;10108;50.142;8.724;2022-07-22T08:12:01;21.30;99.90
19892;DHT22;10108;50.142;8.724;2022-07-22T08:14:48;21.40;99.90
19892;DHT22;10108;50.142;8.724;2022-07-22T08:17:26;21.40;99.90
19892;DHT22;10108;50.142;8.724;2022-07-22T08:19:52;21.40;99.90
19892;DHT22;10108;50.142;8.724;2022-07-22T08:22:18;21.40;99.90
19892;DHT22;10108;50.142;8.724;2022-07-22T08:24:46;21.40;99.90
19892;DHT22;10108;50.142;8.724;2022-07-22T08:27:15;21.40;99.90
19892;DHT22;10108;50.142;8.724;2022-07-22T08:29:42;21.40;99.90
19892;DHT22;10108;50.142;8.724;2022-07-22T08:32:08;21.40;99.90
19892;DHT22;10108;50.142;8.724;2022-07-22T08:34:35;21.50;99.90
19892;DHT22;10108;50.142;8.724;2022-07-22T08:37:01;21.50;99.90
19892;DHT22;10108;50.142;8.724;2022-07-22T08:39:27;21.50;99.90
19892;DHT22;10108;50.142;8.724;2022-07-22T08:41:56;21.50;99.90
19892;DHT22;10108;50.142;8.724;2022-07-22T08:44:22;21.60;99.90
19892;DHT22;10108;50.142;8.724;2022-07-22T08:46:49;21.60;99.90
19892;DHT22;10108;50.142;8.724;2022-07-22T08:49:18;21.60;99.90
19892;DHT22;10108;50.142;8.724;2022-07-22T08:51:55;21.70;99.90
19892;DHT22;10108;50.142;8.724;2022-07-22T08:54:24;21.70;99.90
19892;DHT22;10108;50.142;8.724;2022-07-22T08:56:51;21.70;99.90
19892;DHT22;10108;50.142;8.724;2022-07-22T08:59:18;21.80;99.90
19892;DHT22;10108;50.142;8.724;2022-07-22T09:02:17;21.80;99.90
19892;DHT22;10108;50.142;8.724;2022-07-22T09:04:59;21.80;99.90
19892;DHT22;10108;50.142;8.724;2022-07-22T09:07:36;21.80;99.90
19892;DHT22;10108;50.142;8.724;2022-07-22T09:10:15;21.80;99.90
19892;DHT22;10108;50.142;8.724;2022-07-22T09:13:04;21.90;99.90
19892;DHT22;10108;50.142;8.724;2022-07-22T09:15:51;21.90;99.90
19892;DHT22;10108;50.142;8.724;2022-07-22T09:18:45;21.90;99.90
19892;DHT22;10108;50.142;8.724;2022-07-22T09:21:29;21.90;99.90
19892;DHT22;10108;50.142;8.724;2022-07-22T09:24:07;21.90;99.90
19892;DHT22;10108;50.142;8.724;2022-07-22T09:26:39;21.90;99.90
19892;DHT22;10108;50.142;8.724;2022-07-22T09:29:24;21.90;99.90
19892;DHT22;10108;50.142;8.724;2022-07-22T09:32:09;21.90;99.90
19892;DHT22;10108;50.142;8.724;2022-07-22T09:35:04;22.00;99.90
19892;DHT22;10108;50.142;8.724;2022-07-22T09:38:08;22.00;99.90
19892;DHT22;10108;50.142;8.724;2022-07-22T09:40:38;22.00;99.90
19892;DHT22;10108;50.142;8.724;2022-07-22T09:43:09;22.00;99.90
19892;DHT22;10108;50.142;8.724;2022-07-22T09:45:46;22.00;99.90
19892;DHT22;10108;50.142;8.724;2022-07-22T09:48:15;22.00;99.90
19892;DHT22;10108;50.142;8.724;2022-07-22T09:50:42;22.00;99.90
19892;DHT22;10108;50.142;8.724;2022-07-22T09:53:20;22.00;99.90
19892;DHT22;10108;50.142;8.724;2022-07-22T09:56:02;22.10;99.90
19892;DHT22;10108;50.142;8.724;2022-07-22T09:58:28;22.10;99.90
19892;DHT22;10108;50.142;8.724;2022-07-22T10:00:58;22.10;99.90
19892;DHT22;10108;50.142;8.724;2022-07-22T10:03:30;22.10;99.90
19892;DHT22;10108;50.142;8.724;2022-07-22T10:06:00;22.20;99.90
19892;DHT22;10108;50.142;8.724;2022-07-22T10:08:27;22.20;99.90
19892;DHT22;10108;50.142;8.724;2022-07-22T10:11:00;22.20;99.90
19892;DHT22;10108;50.142;8.724;2022-07-22T10:13:27;22.20;99.90
19892;DHT22;10108;50.142;8.724;2022-07-22T10:15:55;22.20;99.90
19892;DHT22;10108;50.142;8.724;2022-07-22T10:18:23;22.30;99.90
19892;DHT22;10108;50.142;8.724;2022-07-22T10:21:06;22.30;99.90
19892;DHT22;10108;50.142;8.724;2022-07-22T10:23:34;22.30;99.90
19892;DHT22;10108;50.142;8.724;2022-07-22T10:26:01;22.30;99.90
19892;DHT22;10108;50.142;8.724;2022-07-22T10:28:31;22.40;99.90
19892;DHT22;10108;50.142;8.724;2022-07-22T10:31:22;22.30;99.90
19892;DHT22;10108;50.142;8.724;2022-07-22T10:33:56;22.30;99.90
19892;DHT22;10108;50.142;8.724;2022-07-22T10:36:36;22.30;99.90
19892;DHT22;10108;50.142;8.724;2022-07-22T10:39:07;22.40;99.90
19892;DHT22;10108;50.142;8.724;2022-07-22T10:41:41;22.40;99.90
19892;DHT22;10108;50.142;8.724;2022-07-22T10:44:08;22.50;99.90
19892;DHT22;10108;50.142;8.724;2022-07-22T10:46:49;22.50;99.90
19892;DHT22;10108;50.142;8.724;2022-07-22T10:49:19;22.50;99.90
19892;DHT22;10108;50.142;8.724;2022-07-22T10:55:17;22.60;99.90
19892;DHT22;10108;50.142;8.724;2022-07-22T10:57:44;22.60;99.90
19892;DHT22;10108;50.142;8.724;2022-07-22T11:00:10;22.60;99.90
19892;DHT22;10108;50.142;8.724;2022-07-22T11:02:37;22.60;99.90
19892;DHT22;10108;50.142;8.724;2022-07-22T11:05:04;22.60;99.90
19892;DHT22;10108;50.142;8.724;2022-07-22T11:07:30;22.60;99.90
19892;DHT22;10108;50.142;8.724;2022-07-22T11:10:16;22.60;99.90
19892;DHT22;10108;50.142;8.724;2022-07-22T11:12:43;22.70;99.90
19892;DHT22;10108;50.142;8.724;2022-07-22T11:15:09;22.70;99.90
19892;DHT22;10108;50.142;8.724;2022-07-22T11:17:37;22.70;99.90
19892;DHT22;10108;50.142;8.724;2022-07-22T11:20:08;22.60;99.90
19892;DHT22;10108;50.142;8.724;2022-07-22T11:22:35;22.70;99.90
19892;DHT22;10108;50.142;8.724;2022-07-22T11:25:05;22.70;99.90
19892;DHT22;10108;50.142;8.724;2022-07-22T11:27:31;22.70;99.90
19892;DHT22;10108;50.142;8.724;2022-07-22T11:29:57;22.70;99.90
19892;DHT22;10108;50.142;8.724;2022-07-22T11:32:25;22.80;99.90
19892;DHT22;10108;50.142;8.724;2022-07-22T11:34:51;22.80;99.90
19892;DHT22;10108;50.142;8.724;2022-07-22T11:37:22;22.80;99.90
19892;DHT22;10108;50.142;8.724;2022-07-22T11:39:50;22.80;99.90
19892;DHT22;10108;50.142;8.724;2022-07-22T11:42:17;22.80;99.90
19892;DHT22;10108;50.142;8.724;2022-07-22T11:44:43;22.80;99.90
19892;DHT22;10108;50.142;8.724;2022-07-22T11:47:10;22.80;99.90
19892;DHT22;10108;50.142;8.724;2022-07-22T11:49:38;22.80;99.90
19892;DHT22;10108;50.142;8.724;2022-07-22T11:52:08;22.80;99.90
19892;DHT22;10108;50.142;8.724;2022-07-22T11:54:39;22.90;99.90
19892;DHT22;10108;50.142;8.724;2022-07-22T11:57:06;22.90;99.90
19892;DHT22;10108;50.142;8.724;2022-07-22T11:59:34;22.90;99.90
19892;DHT22;10108;50.142;8.724;2022-07-22T12:02:02;23.00;99.90
19892;DHT22;10108;50.142;8.724;2022-07-22T12:04:29;23.10;99.90
19892;DHT22;10108;50.142;8.724;2022-07-22T12:06:59;23.20;99.90
19892;DHT22;10108;50.142;8.724;2022-07-22T12:09:36;23.20;99.90
19892;DHT22;10108;50.142;8.724;2022-07-22T12:12:03;23.20;99.90
19892;DHT22;10108;50.142;8.724;2022-07-22T12:14:32;23.30;99.90
19892;DHT22;10108;50.142;8.724;2022-07-22T12:17:00;23.30;99.90
19892;DHT22;10108;50.142;8.724;2022-07-22T12:19:28;23.30;99.90
19892;DHT22;10108;50.142;8.724;2022-07-22T12:22:04;23.30;99.90
19892;DHT22;10108;50.142;8.724;2022-07-22T12:24:39;23.40;99.90
19892;DHT22;10108;50.142;8.724;2022-07-22T12:27:07;23.30;99.90
19892;DHT22;10108;50.142;8.724;2022-07-22T12:34:39;23.20;99.90
19892;DHT22;10108;50.142;8.724;2022-07-22T12:37:22;23.30;99.90
19892;DHT22;10108;50.142;8.724;2022-07-22T12:42:31;23.30;99.90
19892;DHT22;10108;50.142;8.724;2022-07-22T12:45:12;23.30;99.90
19892;DHT22;10108;50.142;8.724;2022-07-22T12:47:57;23.30;99.90
19892;DHT22;10108;50.142;8.724;2022-07-22T12:55:26;23.40;99.90
19892;DHT22;10108;50.142;8.724;2022-07-22T12:57:52;23.40;99.90
19892;DHT22;10108;50.142;8.724;2022-07-22T13:00:24;23.40;99.90
19892;DHT22;10108;50.142;8.724;2022-07-22T13:02:51;23.40;99.90
19892;DHT22;10108;50.142;8.724;2022-07-22T13:05:18;23.50;99.90
19892;DHT22;10108;50.142;8.724;2022-07-22T13:07:44;23.50;99.90
19892;DHT22;10108;50.142;8.724;2022-07-22T13:10:12;23.50;99.90
19892;DHT22;10108;50.142;8.724;2022-07-22T13:12:39;23.70;99.90
19892;DHT22;10108;50.142;8.724;2022-07-22T13:15:06;23.80;99.90
19892;DHT22;10108;50.142;8.724;2022-07-22T13:17:32;23.90;99.90
19892;DHT22;10108;50.142;8.724;2022-07-22T13:19:58;23.90;99.90
19892;DHT22;10108;50.142;8.724;2022-07-22T13:22:25;23.90;99.90
19892;DHT22;10108;50.142;8.724;2022-07-22T13:24:51;23.90;99.90
19892;DHT22;10108;50.142;8.724;2022-07-22T13:27:17;23.90;99.90
19892;DHT22;10108;50.142;8.724;2022-07-22T13:29:43;23.90;99.90
19892;DHT22;10108;50.142;8.724;2022-07-22T13:32:09;23.90;99.90
19892;DHT22;10108;50.142;8.724;2022-07-22T13:34:36;23.90;99.90
19892;DHT22;10108;50.142;8.724;2022-07-22T13:37:02;23.90;99.90
19892;DHT22;10108;50.142;8.724;2022-07-22T13:39:28;23.80;99.90
19892;DHT22;10108;50.142;8.724;2022-07-22T13:41:54;23.80;99.90
19892;DHT22;10108;50.142;8.724;2022-07-22T13:44:20;23.80;99.90
19892;DHT22;10108;50.142;8.724;2022-07-22T13:46:46;23.80;99.90
19892;DHT22;10108;50.142;8.724;2022-07-22T13:49:13;23.80;99.90
19892;DHT22;10108;50.142;8.724;2022-07-22T13:51:40;23.80;99.90
19892;DHT22;10108;50.142;8.724;2022-07-22T13:54:06;23.70;99.90
19892;DHT22;10108;50.142;8.724;2022-07-22T13:56:33;23.70;99.90
19892;DHT22;10108;50.142;8.724;2022-07-22T13:59:00;23.70;99.90
19892;DHT22;10108;50.142;8.724;2022-07-22T14:01:27;23.80;99.90
19892;DHT22;10108;50.142;8.724;2022-07-22T14:03:53;23.80;99.90
19892;DHT22;10108;50.142;8.724;2022-07-22T14:06:19;23.80;99.90
19892;DHT22;10108;50.142;8.724;2022-07-22T14:08:45;23.90;99.90
19892;DHT22;10108;50.142;8.724;2022-07-22T14:11:11;23.90;99.90
19892;DHT22;10108;50.142;8.724;2022-07-22T14:13:37;23.90;99.90
19892;DHT22;10108;50.142;8.724;2022-07-22T14:16:04;23.90;99.90
19892;DHT22;10108;50.142;8.724;2022-07-22T14:18:49;23.90;99.90
19892;DHT22;10108;50.142;8.724;2022-07-22T14:21:15;23.90;99.90
19892;DHT22;10108;50.142;8.724;2022-07-22T14:23:41;23.90;99.90
19892;DHT22;10108;50.142;8.724;2022-07-22T14:26:07;24.00;99.90
19892;DHT22;10108;50.142;8.724;2022-07-22T14:28:33;24.00;99.90
19892;DHT22;10108;50.142;8.724;2022-07-22T14:30:59;24.10;99.90
19892;DHT22;10108;50.142;8.724;2022-07-22T14:33:25;24.10;99.90
19892;DHT22;10108;50.142;8.724;2022-07-22T14:35:51;24.10;99.90
19892;DHT22;10108;50.142;8.724;2022-07-22T14:38:18;24.10;98.80
19892;DHT22;10108;50.142;8.724;2022-07-22T14:40:45;24.20;99.00
19892;DHT22;10108;50.142;8.724;2022-07-22T14:43:11;24.40;99.70
19892;DHT22;10108;50.142;8.724;2022-07-22T14:45:37;24.40;99.90
19892;DHT22;10108;50.142;8.724;2022-07-22T14:48:04;24.40;98.50
19892;DHT22;10108;50.142;8.724;2022-07-22T14:50:30;24.50;98.60
19892;DHT22;10108;50.142;8.724;2022-07-22T14:52:56;24.40;99.50
19892;DHT22;10108;50.142;8.724;2022-07-22T14:55:22;24.40;99.90
19892;DHT22;10108;50.142;8.724;2022-07-22T14:57:48;24.30;99.90
19892;DHT22;10108;50.142;8.724;2022-07-22T15:00:14;24.30;99.90
19892;DHT22;10108;50.142;8.724;2022-07-22T15:02:41;24.30;99.90
19892;DHT22;10108;50.142;8.724;2022-07-22T15:05:07;24.30;99.90
19892;DHT22;10108;50.142;8.724;2022-07-22T15:07:34;24.20;99.90
19892;DHT22;10108;50.142;8.724;2022-07-22T15:10:00;24.10;99.90
19892;DHT22;10108;50.142;8.724;2022-07-22T15:12:26;24.10;99.90
19892;DHT22;10108;50.142;8.724;2022-07-22T15:14:52;24.00;99.90
19892;DHT22;10108;50.142;8.724;2022-07-22T15:17:19;24.00;99.90
19892;DHT22;10108;50.142;8.724;2022-07-22T15:19:45;24.00;99.90
19892;DHT22;10108;50.142;8.724;2022-07-22T15:22:11;24.00;99.90
19892;DHT22;10108;50.142;8.724;2022-07-22T15:24:37;23.90;99.90
19892;DHT22;10108;50.142;8.724;2022-07-22T15:27:03;23.90;99.90
19892;DHT22;10108;50.142;8.724;2022-07-22T15:29:29;23.90;99.90
19892;DHT22;10108;50.142;8.724;2022-07-22T15:31:55;23.90;99.90
19892;DHT22;10108;50.142;8.724;2022-07-22T15:34:21;23.90;99.90
19892;DHT22;10108;50.142;8.724;2022-07-22T15:36:48;24.00;99.90
19892;DHT22;10108;50.142;8.724;2022-07-22T15:39:14;23.90;99.90
19892;DHT22;10108;50.142;8.724;2022-07-22T15:41:40;24.00;99.90
19892;DHT22;10108;50.142;8.724;2022-07-22T15:44:07;24.00;99.90
19892;DHT22;10108;50.142;8.724;2022-07-22T15:46:33;24.10;99.90
19892;DHT22;10108;50.142;8.724;2022-07-22T15:49:00;24.10;99.90
19892;DHT22;10108;50.142;8.724;2022-07-22T15:51:26;24.10;99.90
19892;DHT22;10108;50.142;8.724;2022-07-22T15:53:52;24.10;99.90
19892;DHT22;10108;50.142;8.724;2022-07-22T15:56:18;24.10;99.90